createdAt,value
2022-11-03T00:05:24.659Z,7.78
2022-11-03T00:10:32.216Z,7.72
2022-11-03T00:15:39.621Z,7.63
2022-11-03T00:20:47.134Z,7.50
2022-11-03T00:25:54.872Z,7.40
2022-11-03T00:31:03.626Z,7.30
2022-11-03T00:36:13.618Z,7.18
2022-11-03T00:41:22.790Z,7.18
2022-11-03T00:46:30.736Z,7.27
2022-11-03T00:51:37.818Z,7.30
2022-11-03T00:56:44.499Z,7.27
2022-11-03T01:01:51.966Z,7.12
2022-11-03T01:07:01.351Z,6.94
2022-11-03T01:12:11.720Z,6.85
2022-11-03T01:17:22.129Z,6.74
2022-11-03T01:22:29.472Z,6.61
2022-11-03T01:27:37.848Z,6.57
2022-11-03T01:32:45.035Z,6.58
2022-11-03T01:37:52.794Z,6.61
2022-11-03T01:43:20.685Z,6.68
2022-11-03T01:48:29.433Z,6.62
2022-11-03T01:53:39.118Z,6.50
2022-11-03T01:58:51.761Z,6.45
2022-11-03T02:04:13.011Z,6.41
2022-11-03T02:09:21.347Z,6.24
2022-11-03T02:14:29.161Z,6.08
2022-11-03T02:19:40.401Z,5.92
2022-11-03T02:24:54.187Z,5.86
2022-11-03T02:30:01.719Z,5.78
2022-11-03T02:35:21.890Z,5.73
2022-11-03T02:40:34.294Z,5.75
2022-11-03T02:45:43.271Z,5.74
2022-11-03T02:50:51.269Z,5.67
2022-11-03T02:56:03.744Z,5.59
2022-11-03T03:01:16.316Z,5.50
2022-11-03T03:06:30.067Z,5.46
2022-11-03T03:11:40.853Z,5.44
2022-11-03T03:16:55.536Z,5.42
2022-11-03T03:22:26.312Z,5.34
2022-11-03T03:27:35.936Z,5.25
2022-11-03T03:32:48.742Z,5.23
2022-11-03T03:38:00.881Z,5.16
2022-11-03T03:43:11.522Z,5.17
2022-11-03T03:48:19.016Z,5.17
2022-11-03T03:53:30.941Z,5.18
2022-11-03T03:58:37.988Z,5.24
2022-11-03T04:03:45.118Z,5.26
2022-11-03T04:08:51.035Z,5.27
2022-11-03T04:14:16.345Z,5.27
2022-11-03T04:19:41.817Z,5.26
2022-11-03T04:24:51.047Z,5.16
2022-11-03T04:30:01.456Z,4.97
2022-11-03T04:35:18.761Z,4.83
2022-11-03T04:40:26.243Z,4.86
2022-11-03T04:45:34.989Z,4.93
2022-11-03T04:50:46.791Z,4.98
2022-11-03T04:55:55.647Z,5.02
2022-11-03T05:01:05.175Z,5.05
2022-11-03T05:06:19.640Z,5.01
2022-11-03T05:11:33.570Z,4.86
2022-11-03T05:16:41.130Z,4.82
2022-11-03T05:21:51.412Z,4.72
2022-11-03T05:27:01.357Z,4.62
2022-11-03T05:32:15.830Z,4.65
2022-11-03T05:37:28.526Z,4.50
2022-11-03T05:42:41.802Z,4.46
2022-11-03T05:47:49.694Z,4.48
2022-11-03T05:53:00.607Z,4.37
2022-11-03T05:58:23.301Z,4.24
2022-11-03T06:03:33.182Z,4.16
2022-11-03T06:08:43.215Z,4.14
2022-11-03T06:13:53.874Z,4.26
2022-11-03T06:19:02.994Z,4.40
2022-11-03T06:24:15.272Z,4.35
2022-11-03T06:29:23.998Z,4.24
2022-11-03T06:34:43.130Z,4.26
2022-11-03T06:39:51.276Z,4.33
2022-11-03T06:44:59.106Z,4.50
2022-11-03T06:50:24.028Z,4.69
2022-11-03T06:55:32.582Z,4.86
2022-11-03T07:00:45.871Z,5.00
2022-11-03T07:06:02.923Z,5.13
2022-11-03T07:11:17.302Z,5.23
2022-11-03T07:16:29.986Z,5.36
2022-11-03T07:21:42.494Z,5.50
2022-11-03T07:26:51.505Z,5.63
2022-11-03T07:32:00.934Z,5.73
2022-11-03T07:42:23.041Z,6.05
2022-11-03T07:47:31.073Z,6.25
2022-11-03T07:52:39.289Z,6.41
2022-11-03T07:57:48.192Z,6.61
2022-11-03T08:03:00.685Z,6.81
2022-11-03T08:08:08.225Z,7.03
2022-11-03T08:13:15.836Z,7.25
2022-11-03T08:18:23.258Z,7.44
2022-11-03T08:27:36.744Z,7.79
2022-11-03T08:32:43.895Z,7.95
2022-11-03T08:37:49.480Z,8.11
2022-11-03T08:42:57.141Z,8.32
2022-11-03T08:48:04.470Z,8.56
2022-11-03T08:53:12.013Z,8.79
2022-11-03T08:58:19.436Z,8.99
2022-11-03T09:03:27.377Z,9.18
2022-11-03T09:14:01.887Z,9.60
2022-11-03T09:19:09.363Z,9.77
2022-11-03T09:24:17.630Z,9.92
2022-11-03T09:29:32.871Z,10.09
2022-11-03T09:34:47.793Z,10.23
2022-11-03T09:39:55.264Z,10.35
2022-11-03T09:45:03.159Z,10.52
2022-11-03T09:50:15.940Z,10.66
2022-11-03T09:55:25.957Z,10.78
2022-11-03T10:00:33.521Z,10.87
2022-11-03T10:05:43.682Z,10.98
2022-11-03T10:10:51.306Z,11.13
2022-11-03T10:15:58.944Z,11.27
2022-11-03T10:21:08.123Z,11.40
2022-11-03T10:26:19.565Z,11.53
2022-11-03T10:31:35.616Z,11.64
2022-11-03T10:36:48.057Z,11.67
2022-11-03T10:42:02.048Z,11.71
2022-11-03T10:47:23.488Z,11.79
2022-11-03T10:52:31.579Z,11.89
2022-11-03T10:57:38.818Z,11.94
2022-11-03T11:02:47.847Z,11.96
2022-11-03T11:07:57.057Z,11.97
2022-11-03T11:13:27.746Z,11.98
2022-11-03T11:19:12.244Z,12.01
2022-11-03T11:25:00.187Z,12.06
2022-11-03T11:30:30.186Z,12.16
2022-11-03T11:36:21.782Z,12.21
2022-11-03T11:42:05.231Z,12.23
2022-11-03T11:47:36.182Z,12.28
2022-11-03T11:52:46.489Z,12.36
2022-11-03T11:57:55.195Z,12.41
2022-11-03T12:03:07.812Z,12.45
2022-11-03T12:08:28.821Z,12.46
2022-11-03T12:13:47.140Z,12.45
2022-11-03T12:18:55.604Z,12.48
2022-11-03T12:24:02.900Z,12.50
2022-11-03T12:29:10.610Z,12.51
2022-11-03T12:34:19.147Z,12.54
2022-11-03T12:39:27.367Z,12.57
2022-11-03T12:44:36.776Z,12.65
2022-11-03T12:49:46.454Z,12.69
2022-11-03T12:54:54.503Z,12.73
2022-11-03T13:00:01.896Z,12.73
2022-11-03T13:05:15.923Z,12.72
2022-11-03T13:10:23.800Z,12.72
2022-11-03T13:15:31.048Z,12.73
2022-11-03T13:20:38.743Z,12.73
2022-11-03T13:25:46.774Z,12.76
2022-11-03T13:30:54.230Z,12.81
2022-11-03T13:36:02.101Z,12.86
2022-11-03T13:41:09.874Z,12.88
2022-11-03T13:46:17.241Z,12.89
2022-11-03T13:51:25.121Z,12.88
2022-11-03T14:07:29.370Z,12.83
2022-11-03T14:12:37.328Z,12.78
2022-11-03T14:17:44.617Z,12.72
2022-11-03T14:22:52.043Z,12.66
2022-11-03T14:27:59.499Z,12.59
2022-11-03T14:33:07.099Z,12.52
2022-11-03T14:38:15.286Z,12.44
2022-11-03T14:43:23.149Z,12.37
2022-11-03T14:48:30.534Z,12.31
2022-11-03T14:53:38.062Z,12.25
2022-11-03T14:58:45.780Z,12.17
2022-11-03T15:03:53.713Z,12.08
2022-11-03T15:09:00.948Z,12.00
2022-11-03T15:14:08.917Z,11.91
2022-11-03T15:19:16.313Z,11.81
2022-11-03T15:29:54.109Z,11.63
2022-11-03T15:35:01.884Z,11.55
2022-11-03T15:40:12.640Z,11.46
2022-11-03T15:45:21.826Z,11.37
2022-11-03T15:50:29.306Z,11.28
2022-11-03T15:55:37.439Z,11.20
2022-11-03T16:00:45.153Z,11.12
2022-11-03T16:05:54.616Z,11.03
2022-11-03T16:11:02.821Z,10.94
2022-11-03T16:16:11.487Z,10.87
2022-11-03T16:21:19.292Z,10.78
2022-11-03T16:26:27.585Z,10.70
2022-11-03T16:31:36.233Z,10.63
2022-11-03T16:36:44.664Z,10.57
2022-11-03T16:41:55.255Z,10.53
2022-11-03T16:47:02.797Z,10.51
2022-11-03T16:52:11.180Z,10.52
2022-11-03T16:57:19.251Z,10.55
2022-11-03T17:02:28.298Z,10.56
2022-11-03T17:07:35.889Z,10.55
2022-11-03T17:12:43.360Z,10.52
2022-11-03T17:17:54.176Z,10.50
2022-11-03T17:23:01.883Z,10.46
2022-11-03T17:32:54.529Z,10.41
2022-11-03T17:38:07.139Z,10.35
2022-11-03T17:43:22.666Z,10.28
2022-11-03T17:48:30.180Z,10.21
2022-11-03T17:53:37.639Z,10.15
2022-11-03T17:58:47.308Z,10.07
2022-11-03T18:03:55.562Z,9.99
2022-11-03T18:09:02.927Z,9.93
2022-11-03T18:14:10.818Z,9.86
2022-11-03T18:19:19.562Z,9.80
2022-11-03T18:24:28.602Z,9.72
2022-11-03T18:29:36.360Z,9.67
2022-11-03T18:34:43.780Z,9.61
2022-11-03T18:39:51.904Z,9.58
2022-11-03T18:45:02.667Z,9.53
2022-11-03T18:50:16.877Z,9.53
2022-11-03T18:55:25.073Z,9.51
2022-11-03T19:00:33.924Z,9.46
2022-11-03T19:05:44.406Z,9.38
2022-11-03T19:10:53.839Z,9.30
2022-11-03T19:16:03.539Z,9.24
2022-11-03T19:21:16.630Z,9.20
2022-11-03T19:26:27.340Z,9.18
2022-11-03T19:31:39.340Z,9.19
2022-11-03T19:36:47.795Z,9.22
2022-11-03T19:42:13.105Z,9.23
2022-11-03T19:47:23.231Z,9.22
2022-11-03T19:52:34.056Z,9.22
2022-11-03T19:57:41.594Z,9.22
2022-11-03T20:02:49.872Z,9.20
2022-11-03T20:08:01.279Z,9.18
2022-11-03T20:13:10.488Z,9.16
2022-11-03T20:18:18.800Z,9.13
2022-11-03T20:23:30.114Z,9.10
2022-11-03T20:28:39.916Z,9.12
2022-11-03T20:33:48.410Z,9.15
2022-11-03T20:38:59.756Z,9.17
2022-11-03T20:44:08.131Z,9.19
2022-11-03T20:49:16.072Z,9.18
2022-11-03T20:54:24.286Z,9.17
2022-11-03T20:59:34.614Z,9.13
2022-11-03T21:04:45.746Z,9.10
2022-11-03T21:09:53.764Z,9.07
2022-11-03T21:15:18.778Z,9.06
2022-11-03T21:20:26.710Z,9.09
2022-11-03T21:25:34.106Z,9.09
2022-11-03T21:30:41.542Z,9.10
2022-11-03T21:35:50.543Z,9.11
2022-11-03T21:41:18.192Z,9.11
2022-11-03T21:46:24.696Z,9.08
2022-11-03T21:51:31.933Z,9.04
2022-11-03T21:56:39.525Z,9.01
2022-11-03T22:01:49.538Z,8.98
2022-11-03T22:06:59.670Z,8.98
2022-11-03T22:12:10.851Z,8.98
2022-11-03T22:17:18.458Z,8.96
2022-11-03T22:22:44.590Z,8.96
2022-11-03T22:27:52.581Z,8.93
2022-11-03T22:33:00.658Z,8.90
2022-11-03T22:38:10.494Z,8.90
2022-11-03T22:43:36.239Z,8.89
2022-11-03T22:48:44.063Z,8.91
2022-11-03T22:54:09.214Z,8.94
2022-11-03T22:59:18.622Z,8.93
2022-11-03T23:04:27.403Z,8.93
2022-11-03T23:09:37.440Z,8.93
2022-11-03T23:15:04.640Z,8.91
2022-11-03T23:20:42.157Z,8.88
2022-11-03T23:25:49.827Z,8.85
2022-11-03T23:30:57.260Z,8.82
2022-11-03T23:36:08.284Z,8.81
2022-11-03T23:41:17.079Z,8.81
2022-11-03T23:46:43.932Z,8.80
2022-11-03T23:51:52.066Z,8.78
2022-11-03T23:57:17.080Z,8.75
